Time;durP1;ratioP1;P1;durP2;ratioP2;P2;SDS_P1;SDS_P2;PMS_P1;PMS_P2;Temp;Humidity;BMP_temperature;BMP_pressure;BME280_temperature;BME280_humidity;BME280_pressure;Samples;Min_cycle;Max_cycle;Signal;HPM_P1;HPM_P2
2022/12/12 00:00:11;;;;;;;12.95;6.80;;;-0.50;99.90;;;;;;468112;252;27511;-68
2022/12/12 00:02:12;;;;;;;10.95;6.20;;;-0.50;99.90;;;;;;468084;252;27402;-67
2022/12/12 00:04:13;;;;;;;11.07;7.35;;;-0.50;99.90;;;;;;468147;253;27485;-67
2022/12/12 00:06:15;;;;;;;11.27;6.55;;;-0.50;99.90;;;;;;468049;253;27846;-70
2022/12/12 00:08:16;;;;;;;10.52;6.22;;;-0.60;99.90;;;;;;468075;252;27887;-67
2022/12/12 00:10:17;;;;;;;14.32;6.57;;;-0.60;99.90;;;;;;468081;253;27933;-67
2022/12/12 00:12:18;;;;;;;12.82;6.85;;;-0.60;99.90;;;;;;468021;253;27399;-67
2022/12/12 00:14:20;;;;;;;12.70;6.05;;;-0.60;99.90;;;;;;468105;252;27447;-68
2022/12/12 00:16:21;;;;;;;10.32;6.15;;;-0.60;99.90;;;;;;468097;252;27507;-66
2022/12/12 00:18:22;;;;;;;10.25;6.10;;;-0.60;99.90;;;;;;468082;253;27495;-68
2022/12/12 00:20:23;;;;;;;11.75;6.18;;;-0.60;99.90;;;;;;468096;253;27526;-67
2022/12/12 00:22:25;;;;;;;12.57;6.53;;;-0.60;99.90;;;;;;468014;251;27546;-67
2022/12/12 00:24:26;;;;;;;11.38;6.45;;;-0.60;99.90;;;;;;468088;252;27930;-67
2022/12/12 00:26:27;;;;;;;10.93;5.65;;;-0.60;99.90;;;;;;468077;252;29019;-70
2022/12/12 00:28:28;;;;;;;8.90;5.50;;;-0.60;99.90;;;;;;468052;252;27395;-67
2022/12/12 00:30:30;;;;;;;9.70;5.90;;;-0.50;99.90;;;;;;468058;252;27501;-69
2022/12/12 00:32:32;;;;;;;11.98;6.75;;;-0.60;99.90;;;;;;468073;253;27415;-66
2022/12/12 00:34:32;;;;;;;13.98;7.12;;;-0.60;99.90;;;;;;468033;252;27443;-67
2022/12/12 00:36:33;;;;;;;11.68;6.47;;;-0.60;99.90;;;;;;468094;252;27533;-70
2022/12/12 00:38:35;;;;;;;9.93;6.03;;;-0.60;99.90;;;;;;468095;253;27450;-67
2022/12/12 00:40:36;;;;;;;12.45;6.93;;;-0.60;99.90;;;;;;468079;252;27911;-66
2022/12/12 00:42:37;;;;;;;13.82;7.85;;;-0.60;99.90;;;;;;468056;252;29064;-67
2022/12/12 00:44:38;;;;;;;14.80;7.72;;;-0.70;99.90;;;;;;468034;252;27418;-67
2022/12/12 00:46:41;;;;;;;12.90;7.20;;;-0.70;99.90;;;;;;468088;252;27439;-70
2022/12/12 00:48:41;;;;;;;13.60;7.50;;;-0.60;99.90;;;;;;468012;252;27403;-67
2022/12/12 00:50:42;;;;;;;11.10;7.20;;;-0.60;99.90;;;;;;468088;252;27462;-68
2022/12/12 00:52:43;;;;;;;12.23;7.35;;;-0.70;99.90;;;;;;468073;253;27573;-67
2022/12/12 00:54:45;;;;;;;10.98;7.22;;;-0.70;99.90;;;;;;468035;253;27573;-67
2022/12/12 00:56:46;;;;;;;13.77;7.07;;;-0.70;99.90;;;;;;468099;252;27926;-69
2022/12/12 00:58:47;;;;;;;12.70;6.45;;;-0.70;99.90;;;;;;468047;252;29038;-67
2022/12/12 01:00:48;;;;;;;11.57;6.45;;;-0.70;99.90;;;;;;468072;252;27435;-68
2022/12/12 01:02:50;;;;;;;11.35;6.55;;;-0.70;99.90;;;;;;468099;253;27409;-67
2022/12/12 01:04:51;;;;;;;7.82;5.87;;;-0.70;99.90;;;;;;468040;252;27438;-67
2022/12/12 01:06:52;;;;;;;11.45;6.12;;;-0.60;99.90;;;;;;468098;252;27558;-70
2022/12/12 01:08:54;;;;;;;9.73;6.03;;;-0.60;99.90;;;;;;468056;253;27461;-70
2022/12/12 01:10:55;;;;;;;6.75;4.82;;;-0.60;99.90;;;;;;468107;253;27457;-68
2022/12/12 01:12:56;;;;;;;10.02;6.32;;;-0.60;99.90;;;;;;468059;253;27875;-67
2022/12/12 01:14:57;;;;;;;9.57;6.30;;;-0.60;99.90;;;;;;468000;252;27970;-67
2022/12/12 01:16:59;;;;;;;11.88;6.25;;;-0.60;99.90;;;;;;468089;252;27944;-70
2022/12/12 01:19:00;;;;;;;9.15;5.62;;;-0.60;99.90;;;;;;468133;253;27526;-67
2022/12/12 01:21:01;;;;;;;9.70;5.95;;;-0.60;99.90;;;;;;468074;252;27513;-67
2022/12/12 01:23:02;;;;;;;10.85;6.68;;;-0.60;99.90;;;;;;468084;252;27402;-67
2022/12/12 01:25:04;;;;;;;11.93;6.30;;;-0.60;99.90;;;;;;468113;251;27414;-67
2022/12/12 01:27:05;;;;;;;11.35;5.80;;;-0.60;99.90;;;;;;468085;252;27462;-69
2022/12/12 01:29:06;;;;;;;9.90;6.20;;;-0.70;99.90;;;;;;468080;252;27542;-67
2022/12/12 01:31:07;;;;;;;10.82;7.00;;;-0.70;99.90;;;;;;468081;252;27926;-68
2022/12/12 01:33:09;;;;;;;11.32;7.05;;;-0.60;99.90;;;;;;468096;252;28837;-67
2022/12/12 01:35:10;;;;;;;14.40;7.45;;;-0.60;99.90;;;;;;476970;241;27357;-67
2022/12/12 01:37:11;;;;;;;12.25;6.40;;;-0.70;99.90;;;;;;478249;246;27430;-69
2022/12/12 01:39:12;;;;;;;11.15;6.30;;;-0.70;99.90;;;;;;478203;246;27403;-67
2022/12/12 01:41:14;;;;;;;10.18;6.18;;;-0.60;99.90;;;;;;478202;246;27460;-67
2022/12/12 01:43:15;;;;;;;13.73;6.75;;;-0.60;99.90;;;;;;478204;246;27894;-67
2022/12/12 01:45:16;;;;;;;8.98;6.15;;;-0.70;99.90;;;;;;478244;246;27425;-67
2022/12/12 01:47:17;;;;;;;10.82;5.90;;;-0.70;99.90;;;;;;478203;246;28043;-69
2022/12/12 01:49:19;;;;;;;9.70;6.10;;;-0.70;99.90;;;;;;478219;246;27967;-67
2022/12/12 01:51:20;;;;;;;10.40;6.50;;;-0.70;99.90;;;;;;478212;246;27469;-67
2022/12/12 01:53:21;;;;;;;9.20;5.43;;;-0.70;99.90;;;;;;478227;249;27479;-67
2022/12/12 01:55:22;;;;;;;10.43;6.37;;;-0.70;99.90;;;;;;478257;246;27421;-67
2022/12/12 01:57:24;;;;;;;9.98;5.50;;;-0.70;99.90;;;;;;478259;246;27424;-69
2022/12/12 01:59:25;;;;;;;10.85;5.90;;;-0.70;99.90;;;;;;478274;246;27432;-67
2022/12/12 02:01:26;;;;;;;9.23;6.43;;;-0.70;99.90;;;;;;478262;246;27529;-67
2022/12/12 02:03:27;;;;;;;9.10;5.85;;;-0.70;99.90;;;;;;478264;246;27404;-66
2022/12/12 02:05:29;;;;;;;8.68;5.87;;;-0.70;99.90;;;;;;478276;246;27860;-67
2022/12/12 02:07:30;;;;;;;7.78;5.20;;;-0.80;99.90;;;;;;478210;246;27935;-68
2022/12/12 02:09:31;;;;;;;9.02;5.82;;;-0.90;99.90;;;;;;478245;246;28962;-67
2022/12/12 02:11:32;;;;;;;9.57;5.82;;;-1.00;99.90;;;;;;478217;243;27503;-67
2022/12/12 02:13:34;;;;;;;8.50;5.30;;;-1.00;99.90;;;;;;478265;246;27500;-67
2022/12/12 02:15:35;;;;;;;10.20;6.03;;;-1.00;99.90;;;;;;478235;245;27628;-67
2022/12/12 02:17:36;;;;;;;8.82;5.65;;;-1.10;99.90;;;;;;478226;246;27448;-69
2022/12/12 02:19:37;;;;;;;8.70;5.82;;;-1.10;99.90;;;;;;478255;246;27445;-67
2022/12/12 02:21:39;;;;;;;10.77;5.60;;;-1.10;99.90;;;;;;478229;247;27500;-68
2022/12/12 02:23:40;;;;;;;10.02;5.80;;;-1.20;99.90;;;;;;478204;246;28450;-69
2022/12/12 02:25:41;;;;;;;8.95;5.97;;;-1.20;99.90;;;;;;478220;246;27877;-67
2022/12/12 02:27:42;;;;;;;10.23;6.25;;;-1.20;99.90;;;;;;478217;246;27819;-68
2022/12/12 02:29:45;;;;;;;9.27;5.07;;;-1.30;99.90;;;;;;478220;245;27437;-67
2022/12/12 02:31:45;;;;;;;9.07;5.80;;;-1.30;99.90;;;;;;478206;248;27503;-67
2022/12/12 02:33:46;;;;;;;9.32;5.35;;;-1.30;99.90;;;;;;478202;246;27515;-68
2022/12/12 02:35:47;;;;;;;10.63;5.65;;;-1.40;99.90;;;;;;478250;246;27303;-67
2022/12/12 02:37:49;;;;;;;10.82;5.40;;;-1.40;99.90;;;;;;478195;244;27459;-68
2022/12/12 02:39:50;;;;;;;8.77;5.25;;;-1.50;99.90;;;;;;478243;246;27476;-67
2022/12/12 02:41:51;;;;;;;8.65;5.68;;;-1.50;99.90;;;;;;478254;246;27766;-67
2022/12/12 02:43:53;;;;;;;10.57;6.68;;;-1.50;99.90;;;;;;478197;246;28649;-66
2022/12/12 02:45:54;;;;;;;10.80;5.82;;;-1.60;99.90;;;;;;478278;246;27629;-67
2022/12/12 02:47:55;;;;;;;10.50;6.35;;;-1.60;99.90;;;;;;478210;246;27456;-69
2022/12/12 02:49:56;;;;;;;9.43;5.65;;;-1.60;99.90;;;;;;478279;246;27408;-66
2022/12/12 02:51:58;;;;;;;11.02;6.65;;;-1.60;99.90;;;;;;478247;246;27358;-67
2022/12/12 02:53:59;;;;;;;9.73;5.80;;;-1.70;99.90;;;;;;478280;247;27082;-67
2022/12/12 02:56:00;;;;;;;10.02;5.95;;;-1.70;99.90;;;;;;478261;246;27291;-67
2022/12/12 02:58:01;;;;;;;6.50;4.72;;;-1.70;99.90;;;;;;478267;244;27233;-69
2022/12/12 03:00:03;;;;;;;8.52;5.68;;;-1.80;99.90;;;;;;478236;246;27860;-66
2022/12/12 03:02:04;;;;;;;7.18;5.10;;;-1.80;99.90;;;;;;478280;246;28659;-67
2022/12/12 03:08:44;;;;;;;9.15;5.45;;;-1.80;99.90;;;;;;478233;248;27629;-67
2022/12/12 03:10:45;;;;;;;10.10;5.90;;;-1.90;99.90;;;;;;478257;246;27507;-67
2022/12/12 03:12:47;;;;;;;11.27;5.90;;;-1.90;99.90;;;;;;478240;246;27168;-67
2022/12/12 03:14:48;;;;;;;9.73;6.12;;;-1.90;99.90;;;;;;478204;246;27237;-69
2022/12/12 03:16:49;;;;;;;10.38;5.53;;;-1.90;99.90;;;;;;478271;246;27188;-66
2022/12/12 03:18:50;;;;;;;9.00;6.57;;;-2.00;99.90;;;;;;478244;246;27111;-66
2022/12/12 03:20:51;;;;;;;7.82;5.28;;;-2.00;99.90;;;;;;478225;246;27064;-67
2022/12/12 03:22:53;;;;;;;9.05;6.03;;;-2.00;99.90;;;;;;478241;246;27077;-68
2022/12/12 03:24:54;;;;;;;7.82;5.30;;;-2.00;99.90;;;;;;478243;246;27883;-70
2022/12/12 03:26:55;;;;;;;11.52;5.78;;;-2.10;99.90;;;;;;478271;246;27912;-66
2022/12/12 03:28:56;;;;;;;8.63;6.30;;;-2.10;99.90;;;;;;478257;246;27428;-67
2022/12/12 03:30:58;;;;;;;7.90;5.30;;;-2.20;99.90;;;;;;478219;246;27129;-67
2022/12/12 03:32:59;;;;;;;8.52;5.30;;;-2.20;99.90;;;;;;478247;246;27321;-68
2022/12/12 03:35:00;;;;;;;9.02;6.53;;;-2.30;99.90;;;;;;478227;246;27219;-69
2022/12/12 03:37:01;;;;;;;9.05;6.37;;;-2.30;99.90;;;;;;478229;246;27171;-66
2022/12/12 03:39:04;;;;;;;8.43;5.93;;;-2.30;99.90;;;;;;478226;246;27323;-67
2022/12/12 03:41:04;;;;;;;8.80;5.90;;;-2.30;99.90;;;;;;478106;248;27274;-67
2022/12/12 03:43:05;;;;;;;9.05;5.75;;;-2.30;99.90;;;;;;478206;246;27597;-66
2022/12/12 03:45:06;;;;;;;9.63;5.45;;;-2.40;99.90;;;;;;478204;246;27698;-67
2022/12/12 03:47:08;;;;;;;9.90;5.35;;;-2.40;99.90;;;;;;478165;246;28530;-67
2022/12/12 03:49:09;;;;;;;8.02;5.25;;;-2.40;99.90;;;;;;478162;246;27278;-67
2022/12/12 03:51:10;;;;;;;7.68;5.45;;;-2.40;99.90;;;;;;478154;246;27165;-67
2022/12/12 03:53:11;;;;;;;10.32;6.72;;;-2.50;99.90;;;;;;478211;246;27096;-67
2022/12/12 03:55:13;;;;;;;10.25;6.50;;;-2.50;99.90;;;;;;478217;246;27210;-66
2022/12/12 03:57:14;;;;;;;11.95;6.30;;;-2.60;99.90;;;;;;478180;248;27104;-67
2022/12/12 03:59:15;;;;;;;11.88;6.70;;;-2.70;99.90;;;;;;478286;246;27017;-66
2022/12/12 04:01:17;;;;;;;13.80;8.10;;;-2.80;99.90;;;;;;478238;246;28474;-66
2022/12/12 04:03:18;;;;;;;12.73;7.60;;;-2.90;99.90;;;;;;478252;243;27564;-67
2022/12/12 04:05:19;;;;;;;16.27;8.20;;;-2.90;99.90;;;;;;478206;246;27085;-70
2022/12/12 04:07:20;;;;;;;17.10;8.35;;;-3.00;99.90;;;;;;478233;243;27073;-66
2022/12/12 04:14:01;;;;;;;11.57;7.78;;;-2.90;99.90;;;;;;478223;248;27536;-66
2022/12/12 04:16:03;;;;;;;13.40;7.10;;;;;;;;;;478237;246;27184;-66
2022/12/12 04:18:06;;;;;;;10.55;6.53;;;;;;;;;;478217;247;26573;-65
2022/12/12 04:24:47;;;;;;;12.55;6.70;;;-3.00;99.90;;;;;;478235;248;27358;-70
2022/12/12 04:26:50;;;;;;;14.25;7.15;;;;;;;;;;478227;246;26969;-67
2022/12/12 04:28:52;;;;;;;13.00;6.12;;;;;;;;;;478224;247;26514;-69
2022/12/12 04:30:54;;;;;;;11.20;6.50;;;-3.10;99.90;;;;;;478240;247;28283;-70
2022/12/12 04:32:55;;;;;;;9.48;5.85;;;-3.10;99.90;;;;;;478209;246;27149;-71
2022/12/12 04:34:56;;;;;;;9.23;5.65;;;-3.10;99.90;;;;;;478252;246;27519;-68
2022/12/12 04:36:57;;;;;;;11.82;6.10;;;-3.10;99.90;;;;;;478238;246;27063;-67
2022/12/12 04:39:00;;;;;;;6.90;5.60;;;;;;;;;;478200;245;27005;-70
2022/12/12 04:41:01;;;;;;;8.25;5.82;;;-3.20;99.90;;;;;;478251;247;26975;-68
2022/12/12 04:43:04;;;;;;;12.52;6.50;;;;;;;;;;478232;246;27032;-67
2022/12/12 04:45:06;;;;;;;9.90;5.82;;;;;;;;;;478240;247;26563;-70
2022/12/12 04:47:08;;;;;;;9.48;5.80;;;;;;;;;;478221;245;26917;-67
2022/12/12 04:49:11;;;;;;;10.15;5.72;;;;;;;;;;478183;247;27294;-67
2022/12/12 04:51:12;;;;;;;8.50;5.78;;;-3.30;99.90;;;;;;478228;247;26718;-67
2022/12/12 04:53:13;;;;;;;8.25;5.85;;;-3.30;99.90;;;;;;478212;248;27062;-68
2022/12/12 04:55:15;;;;;;;9.82;6.28;;;-3.30;99.90;;;;;;478222;246;27486;-68
2022/12/12 04:57:16;;;;;;;11.98;6.10;;;-3.40;99.90;;;;;;478230;246;27924;-67
2022/12/12 04:59:17;;;;;;;11.15;6.50;;;-3.40;99.90;;;;;;478254;246;27915;-67
2022/12/12 05:01:18;;;;;;;11.32;6.32;;;-3.40;99.90;;;;;;478218;247;27448;-67
2022/12/12 05:03:21;;;;;;;8.48;5.20;;;;;;;;;;478251;246;27153;-70
2022/12/12 05:05:22;;;;;;;9.57;6.50;;;-3.50;99.90;;;;;;478215;247;26531;-67
2022/12/12 05:07:23;;;;;;;10.13;5.90;;;-3.50;99.90;;;;;;478204;248;27488;-68
2022/12/12 05:09:26;;;;;;;10.13;6.25;;;;;;;;;;478229;246;27399;-67
2022/12/12 05:11:27;;;;;;;8.43;6.10;;;-3.50;99.90;;;;;;478213;247;26535;-68
2022/12/12 05:13:29;;;;;;;9.45;6.07;;;;;;;;;;478111;247;27030;-68
2022/12/12 05:15:31;;;;;;;8.80;5.15;;;-3.50;99.90;;;;;;477997;247;27318;-67
2022/12/12 05:17:32;;;;;;;6.47;4.93;;;-3.50;99.90;;;;;;478082;246;27412;-67
2022/12/12 05:19:33;;;;;;;7.53;5.00;;;-3.50;99.90;;;;;;478127;246;27198;-68
2022/12/12 05:21:36;;;;;;;9.40;5.45;;;;;;;;;;478257;244;27500;-67
2022/12/12 05:23:37;;;;;;;9.00;5.70;;;-3.60;99.90;;;;;;478257;247;26531;-67
2022/12/12 05:25:39;;;;;;;8.18;5.07;;;;;;;;;;478231;246;27491;-67
2022/12/12 05:27:42;;;;;;;6.85;5.22;;;;;;;;;;478245;247;27207;-67
2022/12/12 05:29:43;;;;;;;7.68;5.45;;;-3.60;99.90;;;;;;478236;246;26557;-67
2022/12/12 05:31:45;;;;;;;6.55;5.07;;;;;;;;;;478251;246;27416;-67
2022/12/12 05:33:48;;;;;;;6.62;4.05;;;;;;;;;;478245;247;26754;-68
2022/12/12 05:35:50;;;;;;;8.20;5.05;;;;;;;;;;478234;247;26544;-67
2022/12/12 05:37:53;;;;;;;9.07;5.70;;;;;;;;;;478218;247;26933;-68
2022/12/12 05:39:55;;;;;;;7.75;5.45;;;;;;;;;;478229;247;27243;-67
2022/12/12 05:41:56;;;;;;;10.38;5.50;;;-3.60;99.90;;;;;;478242;248;26559;-68
2022/12/12 05:43:58;;;;;;;8.05;4.80;;;-3.60;99.90;;;;;;478260;246;27456;-70
2022/12/12 05:46:00;;;;;;;7.28;5.28;;;;;;;;;;478228;246;27420;-69
2022/12/12 05:48:03;;;;;;;11.00;5.82;;;;;;;;;;478261;247;26601;-66
2022/12/12 05:50:04;;;;;;;6.45;4.87;;;-3.70;99.90;;;;;;478247;247;28073;-67
2022/12/12 05:52:06;;;;;;;7.85;5.45;;;;;;;;;;478200;246;28521;-69
2022/12/12 05:54:07;;;;;;;7.90;5.25;;;-3.70;99.90;;;;;;478242;247;26539;-68
2022/12/12 05:56:10;;;;;;;6.40;4.90;;;-3.80;99.90;;;;;;478209;246;27496;-67
2022/12/12 05:58:11;;;;;;;7.32;5.05;;;;;;;;;;478230;248;27461;-67
2022/12/12 06:00:14;;;;;;;8.73;5.75;;;;;;;;;;478262;247;26559;-67
2022/12/12 06:02:16;;;;;;;11.95;5.45;;;;;;;;;;478201;247;27586;-67
2022/12/12 06:04:17;;;;;;;7.10;4.22;;;-3.90;99.90;;;;;;478245;247;26758;-67
2022/12/12 06:06:18;;;;;;;7.05;5.62;;;-3.90;99.90;;;;;;478266;245;27436;-69
2022/12/12 06:08:21;;;;;;;9.40;5.68;;;;;;;;;;473841;242;27457;-66
2022/12/12 06:10:22;;;;;;;7.87;5.57;;;-3.90;99.90;;;;;;473106;251;26863;-67
2022/12/12 06:12:23;;;;;;;8.18;5.50;;;-4.00;99.90;;;;;;473577;247;27532;-67
2022/12/12 06:14:26;;;;;;;6.80;5.50;;;;;;;;;;473550;247;27551;-67
2022/12/12 06:16:27;;;;;;;8.20;5.80;;;-4.10;99.90;;;;;;473533;251;27305;-67
2022/12/12 06:18:28;;;;;;;9.23;5.72;;;-4.10;99.90;;;;;;473567;248;27481;-69
2022/12/12 06:20:30;;;;;;;8.20;5.32;;;-4.10;99.90;;;;;;473543;247;27484;-68
2022/12/12 06:22:31;;;;;;;8.68;6.10;;;-4.10;99.90;;;;;;473544;248;27631;-68
2022/12/12 06:24:32;;;;;;;8.00;5.65;;;-4.10;99.90;;;;;;473776;248;27521;-66
2022/12/12 06:26:33;;;;;;;9.65;5.62;;;-4.20;99.90;;;;;;473566;248;27637;-66
2022/12/12 06:28:36;;;;;;;7.37;5.03;;;;;;;;;;473481;247;27501;-65
2022/12/12 06:30:37;;;;;;;6.60;5.90;;;-4.20;99.90;;;;;;473787;248;26876;-69
2022/12/12 06:32:40;;;;;;;7.80;6.05;;;;;;;;;;473438;251;27485;-69
2022/12/12 06:34:41;;;;;;;7.35;5.62;;;-4.20;99.90;;;;;;473340;251;27285;-67
2022/12/12 06:36:42;;;;;;;12.68;6.18;;;-4.10;99.90;;;;;;473483;247;27489;-66
2022/12/12 06:38:43;;;;;;;8.48;5.78;;;-4.20;99.90;;;;;;473516;247;27536;-68
2022/12/12 06:40:44;;;;;;;12.70;7.37;;;-4.20;99.90;;;;;;473424;249;27488;-68
2022/12/12 06:42:46;;;;;;;9.15;6.25;;;-4.30;99.90;;;;;;473509;247;27633;-68
2022/12/12 06:44:47;;;;;;;7.50;6.05;;;-4.30;99.90;;;;;;473605;248;27546;-68
2022/12/12 06:46:48;;;;;;;10.23;7.20;;;-4.30;99.90;;;;;;473395;247;27520;-68
2022/12/12 06:48:49;;;;;;;10.20;5.93;;;-4.30;99.90;;;;;;473542;244;28071;-68
2022/12/12 06:50:51;;;;;;;9.68;6.05;;;-4.30;99.90;;;;;;473472;247;28022;-69
2022/12/12 06:52:52;;;;;;;7.70;6.57;;;-4.30;99.90;;;;;;473573;247;27984;-68
2022/12/12 06:54:54;;;;;;;8.20;5.10;;;-4.30;99.90;;;;;;473599;247;27520;-68
2022/12/12 06:56:55;;;;;;;7.32;5.78;;;-4.20;99.90;;;;;;473591;247;27500;-69
2022/12/12 06:58:56;;;;;;;6.57;5.20;;;-4.10;99.90;;;;;;473523;247;27620;-70
2022/12/12 07:00:57;;;;;;;8.30;4.60;;;-4.10;99.90;;;;;;470854;247;47248;-68
2022/12/12 07:03:00;;;;;;;9.27;6.03;;;;;;;;;;473434;247;27564;-71
2022/12/12 07:05:01;;;;;;;8.02;4.85;;;-4.00;99.90;;;;;;470742;250;36221;-69
2022/12/12 07:07:02;;;;;;;7.75;4.95;;;-3.90;99.90;;;;;;470032;246;36195;-68
2022/12/12 07:09:05;;;;;;;10.32;5.90;;;;;;;;;;473427;247;27651;-67
2022/12/12 07:11:07;;;;;;;9.63;6.43;;;;;;;;;;473585;249;26778;-67
2022/12/12 07:13:09;;;;;;;9.45;6.28;;;;;;;;;;473429;251;27183;-67
2022/12/12 07:15:11;;;;;;;8.02;6.12;;;-3.80;99.90;;;;;;473326;251;26674;-68
2022/12/12 07:17:12;;;;;;;9.07;6.22;;;-3.70;99.90;;;;;;473736;245;27525;-70
2022/12/12 07:19:14;;;;;;;10.60;6.15;;;;;;;;;;473565;247;27556;-67
2022/12/12 07:21:15;;;;;;;10.20;6.65;;;-3.70;99.90;;;;;;473499;248;26818;-67
2022/12/12 07:23:17;;;;;;;12.40;7.47;;;-3.80;99.90;;;;;;473480;247;27615;-68
2022/12/12 07:25:19;;;;;;;10.43;6.90;;;;;;;;;;473474;247;27518;-67
2022/12/12 07:27:22;;;;;;;8.43;5.90;;;;;;;;;;473517;248;27296;-68
2022/12/12 07:29:24;;;;;;;9.65;6.70;;;;;;;;;;473323;251;27005;-67
2022/12/12 07:31:27;;;;;;;11.48;6.85;;;;;;;;;;473385;251;27009;-69
2022/12/12 07:33:29;;;;;;;10.77;6.93;;;;;;;;;;473453;251;27138;-68
2022/12/12 07:35:31;;;;;;;14.82;7.15;;;;;;;;;;473421;251;26862;-68
2022/12/12 07:37:34;;;;;;;11.68;7.82;;;;;;;;;;473500;251;26945;-68
2022/12/12 07:39:36;;;;;;;13.98;7.22;;;;;;;;;;473483;251;27041;-67
2022/12/12 07:41:39;;;;;;;12.37;7.43;;;;;;;;;;473971;248;26681;-67
2022/12/12 07:43:41;;;;;;;12.07;7.03;;;;;;;;;;473549;251;27099;-67
2022/12/12 07:45:42;;;;;;;11.50;7.57;;;-3.30;99.90;;;;;;478497;242;26606;-67
2022/12/12 07:47:45;;;;;;;12.50;7.20;;;;;;;;;;478823;246;27171;-69
2022/12/12 07:49:46;;;;;;;15.98;8.07;;;-3.20;99.90;;;;;;479095;248;27117;-67
2022/12/12 07:51:48;;;;;;;10.38;6.28;;;;;;;;;;479079;246;27059;-70
2022/12/12 07:53:51;;;;;;;13.50;6.45;;;;;;;;;;477910;248;27309;-68
2022/12/12 07:55:53;;;;;;;11.60;7.15;;;;;;;;;;477781;247;26508;-67
2022/12/12 07:57:56;;;;;;;15.60;6.78;;;;;;;;;;477683;247;26550;-66
2022/12/12 07:59:58;;;;;;;13.13;7.57;;;;;;;;;;477773;247;26861;-67
2022/12/12 08:01:59;;;;;;;15.52;6.78;;;-3.30;99.90;;;;;;477785;247;26633;-67
2022/12/12 08:04:01;;;;;;;13.10;7.10;;;-3.20;99.90;;;;;;477716;246;28096;-66
2022/12/12 08:06:02;;;;;;;13.30;7.12;;;-3.20;99.90;;;;;;477722;246;27726;-67
2022/12/12 08:08:04;;;;;;;10.50;6.60;;;;;;;;;;477792;249;27452;-66
2022/12/12 08:10:06;;;;;;;14.38;7.32;;;-3.20;99.90;;;;;;477708;247;26567;-67
2022/12/12 08:12:08;;;;;;;10.27;6.30;;;;;;;;;;477750;246;27157;-67
2022/12/12 08:14:09;;;;;;;11.35;6.90;;;-3.20;99.90;;;;;;477749;247;26547;-68
2022/12/12 08:16:11;;;;;;;16.23;7.32;;;-3.10;99.90;;;;;;477726;246;27153;-66
2022/12/12 08:18:13;;;;;;;15.25;7.70;;;;;;;;;;477718;246;27022;-66
2022/12/12 08:20:16;;;;;;;16.98;8.05;;;;;;;;;;477695;247;26838;-68
2022/12/12 08:22:17;;;;;;;12.77;6.50;;;-3.00;99.90;;;;;;477769;247;26821;-66
2022/12/12 08:24:18;;;;;;;11.85;7.10;;;-3.00;99.90;;;;;;477713;246;27565;-67
2022/12/12 08:26:19;;;;;;;12.95;6.75;;;-2.90;99.90;;;;;;477693;246;28279;-66
2022/12/12 08:28:20;;;;;;;12.75;7.20;;;-2.90;99.90;;;;;;477784;246;27149;-67
2022/12/12 08:30:22;;;;;;;13.90;7.60;;;-2.90;99.90;;;;;;477743;246;27090;-68
2022/12/12 08:32:23;;;;;;;14.43;8.20;;;-2.80;99.90;;;;;;477415;246;27113;-67
2022/12/12 08:34:24;;;;;;;10.90;6.70;;;-2.80;99.90;;;;;;477793;247;27119;-68
2022/12/12 08:36:26;;;;;;;15.23;7.10;;;-2.80;99.90;;;;;;477769;246;27422;-70
2022/12/12 08:38:29;;;;;;;13.50;7.05;;;-2.80;99.90;;;;;;477792;246;27768;-67
2022/12/12 08:40:28;;;;;;;13.62;7.75;;;-2.70;99.90;;;;;;477728;248;28881;-68
2022/12/12 08:42:29;;;;;;;15.63;7.15;;;-2.60;99.90;;;;;;477789;246;27084;-67
2022/12/12 08:44:31;;;;;;;17.60;8.23;;;-2.60;99.90;;;;;;477795;246;27107;-67
2022/12/12 08:46:32;;;;;;;14.95;7.65;;;-2.60;99.90;;;;;;477814;246;27215;-67
2022/12/12 08:48:33;;;;;;;15.85;7.50;;;-2.60;99.90;;;;;;477809;246;27086;-67
2022/12/12 08:50:34;;;;;;;15.43;7.05;;;-2.50;99.90;;;;;;477833;246;27141;-68
2022/12/12 08:52:36;;;;;;;17.50;8.98;;;-2.40;99.90;;;;;;477793;246;27028;-67
2022/12/12 08:54:37;;;;;;;18.37;9.10;;;-2.50;99.90;;;;;;477818;246;27862;-68
2022/12/12 08:56:39;;;;;;;20.17;10.65;;;-2.60;99.90;;;;;;477815;246;28892;-67
2022/12/12 08:58:39;;;;;;;23.73;11.30;;;-2.80;99.90;;;;;;477826;246;27318;-67
2022/12/12 09:00:41;;;;;;;22.25;11.32;;;-2.70;99.90;;;;;;477813;246;27108;-68
2022/12/12 09:02:42;;;;;;;20.90;11.00;;;-2.60;99.90;;;;;;477808;246;27429;-66
2022/12/12 09:04:43;;;;;;;17.75;10.70;;;-2.50;99.90;;;;;;477806;246;27404;-67
2022/12/12 09:06:44;;;;;;;21.02;9.70;;;-2.40;99.90;;;;;;477803;246;27754;-70
2022/12/12 09:08:46;;;;;;;18.33;9.60;;;-2.30;99.90;;;;;;477812;246;27976;-67
2022/12/12 09:10:47;;;;;;;18.98;10.07;;;-2.30;99.90;;;;;;477831;246;27928;-68
2022/12/12 09:12:48;;;;;;;17.90;9.18;;;-2.30;99.90;;;;;;477799;246;27438;-67
2022/12/12 09:14:49;;;;;;;17.58;9.77;;;-2.60;99.90;;;;;;477798;246;27433;-67
2022/12/12 09:16:51;;;;;;;15.95;8.57;;;-2.50;99.90;;;;;;477825;246;27523;-68
2022/12/12 09:18:52;;;;;;;17.92;8.50;;;-2.40;99.90;;;;;;477813;246;27421;-67
2022/12/12 09:20:53;;;;;;;15.50;8.05;;;-2.30;99.90;;;;;;477822;246;27525;-68
2022/12/12 09:22:54;;;;;;;16.08;9.10;;;-2.20;99.90;;;;;;477806;246;27859;-67
2022/12/12 09:24:56;;;;;;;19.02;8.48;;;-2.10;99.90;;;;;;477804;247;28024;-67
2022/12/12 09:26:57;;;;;;;13.68;8.30;;;-2.00;99.90;;;;;;477831;246;27439;-70
2022/12/12 09:28:58;;;;;;;13.68;7.82;;;-2.00;99.90;;;;;;475729;246;47207;-67
2022/12/12 09:30:59;;;;;;;16.00;9.18;;;-1.90;99.90;;;;;;477816;246;27443;-69
2022/12/12 09:33:01;;;;;;;13.13;8.00;;;-1.90;99.90;;;;;;477798;247;27462;-67
2022/12/12 09:35:02;;;;;;;16.52;9.00;;;-1.90;99.90;;;;;;477807;246;27510;-67
2022/12/12 09:37:04;;;;;;;14.60;9.02;;;-1.90;99.90;;;;;;477815;246;27874;-69
2022/12/12 09:39:04;;;;;;;15.50;8.10;;;-1.90;99.90;;;;;;477797;246;27876;-67
2022/12/12 09:41:06;;;;;;;18.52;8.73;;;-2.00;99.90;;;;;;477799;247;27933;-68
2022/12/12 09:43:07;;;;;;;11.75;7.57;;;-2.10;99.90;;;;;;477818;246;27387;-67
2022/12/12 09:45:08;;;;;;;15.05;8.23;;;-2.10;99.90;;;;;;477812;246;27437;-68
2022/12/12 09:47:09;;;;;;;13.57;8.50;;;-2.10;99.90;;;;;;477816;246;27350;-67
2022/12/12 09:49:11;;;;;;;14.45;8.00;;;-2.10;99.90;;;;;;477837;246;27513;-68
2022/12/12 09:51:12;;;;;;;14.85;8.30;;;-2.20;99.90;;;;;;477787;246;27525;-68
2022/12/12 09:53:13;;;;;;;15.10;8.70;;;-2.20;99.90;;;;;;477803;246;27385;-67
2022/12/12 09:55:15;;;;;;;14.13;8.20;;;-2.10;99.90;;;;;;477812;246;27934;-67
2022/12/12 09:57:16;;;;;;;14.35;7.78;;;-2.10;99.90;;;;;;477807;246;29100;-70
2022/12/12 09:59:17;;;;;;;17.87;8.70;;;-2.10;99.90;;;;;;477824;246;27474;-67
2022/12/12 10:01:18;;;;;;;13.65;8.43;;;-2.20;99.90;;;;;;477828;246;27402;-67
2022/12/12 10:03:20;;;;;;;16.87;9.00;;;-2.00;99.90;;;;;;477818;246;27422;-67
2022/12/12 10:05:21;;;;;;;13.88;7.70;;;-2.00;99.90;;;;;;477781;248;27478;-68
2022/12/12 10:07:22;;;;;;;15.45;8.40;;;-2.00;99.90;;;;;;477819;246;27443;-70
2022/12/12 10:09:23;;;;;;;16.00;8.07;;;-2.00;99.90;;;;;;477810;246;27403;-67
2022/12/12 10:13:44;;;;;;;12.68;7.55;;;-2.00;99.90;;;;;;477797;248;27398;-67
2022/12/12 10:15:45;;;;;;;13.57;7.60;;;-2.00;99.90;;;;;;477807;246;27860;-67
2022/12/12 10:17:46;;;;;;;11.75;7.25;;;-2.00;99.90;;;;;;477860;246;29025;-68
2022/12/12 10:19:48;;;;;;;15.57;8.10;;;-2.00;99.90;;;;;;477858;246;27400;-67
2022/12/12 10:21:49;;;;;;;16.05;7.85;;;-1.90;99.90;;;;;;477852;246;27446;-67
2022/12/12 10:23:50;;;;;;;13.38;7.93;;;-1.90;99.90;;;;;;477848;246;27415;-67
2022/12/12 10:25:51;;;;;;;15.77;8.38;;;-1.90;99.90;;;;;;477819;246;27431;-67
2022/12/12 10:27:53;;;;;;;16.20;7.70;;;-1.80;99.90;;;;;;477787;246;27454;-68
2022/12/12 10:29:54;;;;;;;15.63;7.62;;;-1.90;99.90;;;;;;477827;246;27411;-67
2022/12/12 10:31:55;;;;;;;13.93;7.85;;;-1.80;99.90;;;;;;477808;246;28019;-68
2022/12/12 10:33:56;;;;;;;13.45;7.45;;;-1.80;99.90;;;;;;477825;246;28730;-68
2022/12/12 10:35:58;;;;;;;15.80;7.75;;;-1.80;99.90;;;;;;477842;246;27410;-68
2022/12/12 10:37:59;;;;;;;13.70;7.05;;;-1.70;99.90;;;;;;477852;246;27536;-69
2022/12/12 10:40:00;;;;;;;14.30;7.30;;;-1.70;99.90;;;;;;477848;246;27398;-67
2022/12/12 10:42:02;;;;;;;13.80;7.32;;;-1.70;99.90;;;;;;477833;246;27449;-67
2022/12/12 10:44:03;;;;;;;12.70;6.55;;;-1.70;99.90;;;;;;477818;246;27438;-67
2022/12/12 10:46:04;;;;;;;13.15;6.60;;;-1.70;99.90;;;;;;477810;246;27414;-68
2022/12/12 10:48:05;;;;;;;13.30;6.93;;;-1.70;99.90;;;;;;477828;246;27934;-69
2022/12/12 10:50:07;;;;;;;12.73;6.95;;;-1.60;99.90;;;;;;477826;246;28950;-67
2022/12/12 10:52:08;;;;;;;15.80;7.40;;;-1.50;99.90;;;;;;477806;246;27434;-68
2022/12/12 10:54:09;;;;;;;13.80;8.40;;;-1.50;99.90;;;;;;477796;246;27526;-71
2022/12/12 10:56:10;;;;;;;13.68;7.87;;;-1.50;99.90;;;;;;477803;246;27414;-67